sensor_id;sensor_type;location;lat;lon;timestamp;pressure;altitude;pressure_sealevel;temperature;humidity
1207;BME280;593;53.184;8.216;2023-04-07T00:00:49;101180.22;;;10.84;70.05
1207;BME280;593;53.184;8.216;2023-04-07T00:03:15;101185.91;;;10.82;70.04
1207;BME280;593;53.184;8.216;2023-04-07T00:05:40;101188.09;;;10.80;70.14
1207;BME280;593;53.184;8.216;2023-04-07T00:08:06;101182.94;;;10.79;70.70
1207;BME280;593;53.184;8.216;2023-04-07T00:10:31;101194.91;;;10.78;70.82
1207;BME280;593;53.184;8.216;2023-04-07T00:12:57;101185.13;;;10.77;71.39
1207;BME280;593;53.184;8.216;2023-04-07T00:15:22;101178.56;;;10.73;71.47
1207;BME280;593;53.184;8.216;2023-04-07T00:17:48;101184.31;;;10.71;71.71
1207;BME280;593;53.184;8.216;2023-04-07T00:20:13;101173.13;;;10.73;72.03
1207;BME280;593;53.184;8.216;2023-04-07T00:22:39;101184.56;;;10.70;71.35
1207;BME280;593;53.184;8.216;2023-04-07T00:25:04;101178.84;;;10.66;71.35
1207;BME280;593;53.184;8.216;2023-04-07T00:27:30;101183.47;;;10.66;71.27
1207;BME280;593;53.184;8.216;2023-04-07T00:29:56;101177.19;;;10.65;70.83
1207;BME280;593;53.184;8.216;2023-04-07T00:32:21;101182.91;;;10.59;70.67
1207;BME280;593;53.184;8.216;2023-04-07T00:34:47;101180.19;;;10.59;70.98
1207;BME280;593;53.184;8.216;2023-04-07T00:37:12;101182.38;;;10.52;70.84
1207;BME280;593;53.184;8.216;2023-04-07T00:39:38;101186.97;;;10.51;70.40
1207;BME280;593;53.184;8.216;2023-04-07T00:42:03;101184.78;;;10.48;70.34
1207;BME280;593;53.184;8.216;2023-04-07T00:44:32;101183.97;;;10.48;70.01
1207;BME280;593;53.184;8.216;2023-04-07T00:46:58;101181.00;;;10.44;70.15
1207;BME280;593;53.184;8.216;2023-04-07T00:49:25;101174.44;;;10.40;69.83
1207;BME280;593;53.184;8.216;2023-04-07T00:51:53;101188.56;;;10.37;69.97
1207;BME280;593;53.184;8.216;2023-04-07T00:54:20;101182.84;;;10.34;69.70
1207;BME280;593;53.184;8.216;2023-04-07T00:56:47;101193.44;;;10.30;70.01
1207;BME280;593;53.184;8.216;2023-04-07T00:59:12;101182.03;;;10.28;70.62
1207;BME280;593;53.184;8.216;2023-04-07T01:01:50;101185.28;;;10.25;70.69
1207;BME280;593;53.184;8.216;2023-04-07T01:04:33;101168.94;;;10.15;71.08
1207;BME280;593;53.184;8.216;2023-04-07T01:07:13;101180.09;;;10.18;71.38
1207;BME280;593;53.184;8.216;2023-04-07T01:09:46;101175.19;;;10.15;71.21
1207;BME280;593;53.184;8.216;2023-04-07T01:12:35;101174.91;;;10.12;70.80
1207;BME280;593;53.184;8.216;2023-04-07T01:15:09;101185.47;;;10.08;69.95
1207;BME280;593;53.184;8.216;2023-04-07T01:17:36;101177.00;;;10.05;69.60
1207;BME280;593;53.184;8.216;2023-04-07T01:20:04;101180.00;;;10.03;70.01
1207;BME280;593;53.184;8.216;2023-04-07T01:22:38;101186.50;;;10.02;68.55
1207;BME280;593;53.184;8.216;2023-04-07T01:25:26;101178.06;;;9.94;68.82
1207;BME280;593;53.184;8.216;2023-04-07T01:30:22;101191.34;;;9.90;67.34
1207;BME280;593;53.184;8.216;2023-04-07T01:32:51;101176.94;;;9.90;66.29
1207;BME280;593;53.184;8.216;2023-04-07T01:35:17;101178.56;;;9.86;66.38
1207;BME280;593;53.184;8.216;2023-04-07T01:37:43;101186.72;;;9.86;65.79
1207;BME280;593;53.184;8.216;2023-04-07T01:40:13;101190.78;;;9.83;65.32
1207;BME280;593;53.184;8.216;2023-04-07T01:42:40;101184.78;;;9.76;65.05
1207;BME280;593;53.184;8.216;2023-04-07T01:45:07;101194.03;;;9.80;64.47
1207;BME280;593;53.184;8.216;2023-04-07T01:47:34;101183.69;;;9.77;63.49
1207;BME280;593;53.184;8.216;2023-04-07T01:50:02;101190.22;;;9.76;63.15
1207;BME280;593;53.184;8.216;2023-04-07T01:52:35;101183.66;;;9.72;62.49
1207;BME280;593;53.184;8.216;2023-04-07T01:55:04;101194.28;;;9.74;62.98
1207;BME280;593;53.184;8.216;2023-04-07T01:57:30;101184.44;;;9.67;61.76
1207;BME280;593;53.184;8.216;2023-04-07T01:59:55;101183.91;;;9.65;61.46
1207;BME280;593;53.184;8.216;2023-04-07T02:02:21;101182.25;;;9.64;61.33
1207;BME280;593;53.184;8.216;2023-04-07T02:05:04;101181.16;;;9.60;61.20
1207;BME280;593;53.184;8.216;2023-04-07T02:10:11;101183.31;;;9.58;61.38
1207;BME280;593;53.184;8.216;2023-04-07T02:12:38;101190.91;;;9.56;61.40
1207;BME280;593;53.184;8.216;2023-04-07T02:15:07;101184.66;;;9.56;60.81
1207;BME280;593;53.184;8.216;2023-04-07T02:17:35;101180.59;;;9.53;61.49
1207;BME280;593;53.184;8.216;2023-04-07T02:20:02;101189.78;;;9.52;61.23
1207;BME280;593;53.184;8.216;2023-04-07T02:22:28;101188.41;;;9.50;61.04
1207;BME280;593;53.184;8.216;2023-04-07T02:24:54;101181.06;;;9.45;61.01
1207;BME280;593;53.184;8.216;2023-04-07T02:27:20;101185.66;;;9.45;61.44
1207;BME280;593;53.184;8.216;2023-04-07T02:29:45;101187.31;;;9.46;60.93
1207;BME280;593;53.184;8.216;2023-04-07T02:32:10;101176.44;;;9.41;60.93
1207;BME280;593;53.184;8.216;2023-04-07T02:34:36;101182.41;;;9.43;60.83
1207;BME280;593;53.184;8.216;2023-04-07T02:37:01;101177.22;;;9.36;61.01
1207;BME280;593;53.184;8.216;2023-04-07T02:39:27;101188.13;;;9.41;61.01
1207;BME280;593;53.184;8.216;2023-04-07T02:41:52;101187.81;;;9.38;61.62
1207;BME280;593;53.184;8.216;2023-04-07T02:44:17;101182.66;;;9.36;61.63
1207;BME280;593;53.184;8.216;2023-04-07T02:46:42;101189.69;;;9.37;61.07
1207;BME280;593;53.184;8.216;2023-04-07T02:49:08;101192.41;;;9.37;61.17
1207;BME280;593;53.184;8.216;2023-04-07T02:51:33;101185.59;;;9.35;61.04
1207;BME280;593;53.184;8.216;2023-04-07T02:53:58;101183.16;;;9.33;60.89
1207;BME280;593;53.184;8.216;2023-04-07T02:56:24;101190.75;;;9.31;60.46
1207;BME280;593;53.184;8.216;2023-04-07T02:58:49;101184.47;;;9.26;61.17
1207;BME280;593;53.184;8.216;2023-04-07T03:01:15;101183.41;;;9.27;60.72
1207;BME280;593;53.184;8.216;2023-04-07T03:03:40;101194.25;;;9.27;60.62
1207;BME280;593;53.184;8.216;2023-04-07T03:06:08;101190.16;;;9.24;60.15
1207;BME280;593;53.184;8.216;2023-04-07T03:08:34;101195.00;;;9.22;60.01
1207;BME280;593;53.184;8.216;2023-04-07T03:10:59;101186.59;;;9.19;60.52
1207;BME280;593;53.184;8.216;2023-04-07T03:13:25;101193.63;;;9.20;60.65
1207;BME280;593;53.184;8.216;2023-04-07T03:15:50;101187.09;;;9.16;60.54
1207;BME280;593;53.184;8.216;2023-04-07T03:18:16;101192.81;;;9.14;60.24
1207;BME280;593;53.184;8.216;2023-04-07T03:20:41;101191.97;;;9.14;59.45
1207;BME280;593;53.184;8.216;2023-04-07T03:23:07;101190.34;;;9.13;60.50
1207;BME280;593;53.184;8.216;2023-04-07T03:25:32;101195.22;;;9.11;59.76
1207;BME280;593;53.184;8.216;2023-04-07T03:27:58;101187.84;;;9.06;60.19
1207;BME280;593;53.184;8.216;2023-04-07T03:30:23;101195.72;;;9.08;59.83
1207;BME280;593;53.184;8.216;2023-04-07T03:32:49;101196.81;;;9.07;59.88
1207;BME280;593;53.184;8.216;2023-04-07T03:35:15;101173.03;;;8.87;59.60
1207;BME280;593;53.184;8.216;2023-04-07T03:37:40;101177.47;;;8.98;59.48
1207;BME280;593;53.184;8.216;2023-04-07T03:40:06;101177.97;;;8.95;59.70
1207;BME280;593;53.184;8.216;2023-04-07T03:42:31;101171.72;;;8.94;59.70
1207;BME280;593;53.184;8.216;2023-04-07T03:44:57;101173.63;;;8.89;59.76
1207;BME280;593;53.184;8.216;2023-04-07T03:47:22;101183.69;;;8.93;59.97
1207;BME280;593;53.184;8.216;2023-04-07T03:49:47;101181.00;;;8.98;59.30
1207;BME280;593;53.184;8.216;2023-04-07T03:52:13;101191.03;;;8.98;60.11
1207;BME280;593;53.184;8.216;2023-04-07T03:54:39;101195.63;;;8.97;59.64
1207;BME280;593;53.184;8.216;2023-04-07T03:57:05;101189.94;;;8.94;59.22
1207;BME280;593;53.184;8.216;2023-04-07T03:59:31;101193.44;;;8.94;59.00
1207;BME280;593;53.184;8.216;2023-04-07T04:01:57;101196.41;;;8.93;59.90
1207;BME280;593;53.184;8.216;2023-04-07T04:04:22;101199.97;;;8.93;58.55
1207;BME280;593;53.184;8.216;2023-04-07T04:06:49;101195.03;;;8.90;59.14
1207;BME280;593;53.184;8.216;2023-04-07T04:09:14;101197.19;;;8.88;59.45
1207;BME280;593;53.184;8.216;2023-04-07T04:11:40;101197.19;;;8.88;59.66
1207;BME280;593;53.184;8.216;2023-04-07T04:14:06;101202.06;;;8.86;59.16
1207;BME280;593;53.184;8.216;2023-04-07T04:16:31;101209.38;;;8.86;58.63
1207;BME280;593;53.184;8.216;2023-04-07T04:18:56;101208.28;;;8.87;59.44
1207;BME280;593;53.184;8.216;2023-04-07T04:21:22;101205.28;;;8.83;58.16
1207;BME280;593;53.184;8.216;2023-04-07T04:23:47;101218.84;;;8.83;58.57
1207;BME280;593;53.184;8.216;2023-04-07T04:26:12;101206.34;;;8.82;59.17
1207;BME280;593;53.184;8.216;2023-04-07T04:28:38;101211.22;;;8.80;59.09
1207;BME280;593;53.184;8.216;2023-04-07T04:31:03;101214.75;;;8.81;59.18
1207;BME280;593;53.184;8.216;2023-04-07T04:33:28;101211.72;;;8.77;59.43
1207;BME280;593;53.184;8.216;2023-04-07T04:35:54;101217.16;;;8.77;58.42
1207;BME280;593;53.184;8.216;2023-04-07T04:38:20;101226.38;;;8.76;59.41
1207;BME280;593;53.184;8.216;2023-04-07T04:40:45;101220.13;;;8.76;58.42
1207;BME280;593;53.184;8.216;2023-04-07T04:43:11;101222.53;;;8.72;59.25
1207;BME280;593;53.184;8.216;2023-04-07T04:45:36;101213.47;;;8.62;59.12
1207;BME280;593;53.184;8.216;2023-04-07T04:48:01;101232.53;;;8.72;58.31
1207;BME280;593;53.184;8.216;2023-04-07T04:50:27;101231.72;;;8.66;59.17
1207;BME280;593;53.184;8.216;2023-04-07T04:52:52;101225.13;;;8.62;59.17
1207;BME280;593;53.184;8.216;2023-04-07T04:55:17;101226.22;;;8.61;59.12
1207;BME280;593;53.184;8.216;2023-04-07T04:57:43;101238.47;;;8.64;59.43
1207;BME280;593;53.184;8.216;2023-04-07T05:00:09;101238.63;;;8.57;59.65
1207;BME280;593;53.184;8.216;2023-04-07T05:02:35;101235.69;;;8.59;59.67
1207;BME280;593;53.184;8.216;2023-04-07T05:05:01;101245.72;;;8.58;59.78
1207;BME280;593;53.184;8.216;2023-04-07T05:07:26;101242.13;;;8.53;59.04
1207;BME280;593;53.184;8.216;2023-04-07T05:09:51;101254.63;;;8.54;58.59
1207;BME280;593;53.184;8.216;2023-04-07T05:12:17;101264.63;;;8.53;58.87
1207;BME280;593;53.184;8.216;2023-04-07T05:14:42;101250.69;;;8.45;59.42
1207;BME280;593;53.184;8.216;2023-04-07T05:17:07;101250.91;;;8.38;59.31
1207;BME280;593;53.184;8.216;2023-04-07T05:19:33;101262.00;;;8.36;59.37
1207;BME280;593;53.184;8.216;2023-04-07T05:21:58;101263.06;;;8.35;59.58
1207;BME280;593;53.184;8.216;2023-04-07T05:24:26;101264.13;;;8.34;58.32
1207;BME280;593;53.184;8.216;2023-04-07T05:26:51;101271.47;;;8.34;58.81
1207;BME280;593;53.184;8.216;2023-04-07T05:29:17;101277.88;;;8.28;59.51
1207;BME280;593;53.184;8.216;2023-04-07T05:31:42;101265.38;;;8.27;58.62
1207;BME280;593;53.184;8.216;2023-04-07T05:34:07;101281.88;;;8.25;58.66
1207;BME280;593;53.184;8.216;2023-04-07T05:36:34;101275.91;;;8.23;59.81
1207;BME280;593;53.184;8.216;2023-04-07T05:38:59;101277.78;;;8.23;59.17
1207;BME280;593;53.184;8.216;2023-04-07T05:41:25;101284.53;;;8.20;58.91
1207;BME280;593;53.184;8.216;2023-04-07T05:43:50;101271.97;;;8.14;58.87
1207;BME280;593;53.184;8.216;2023-04-07T05:46:15;101278.97;;;8.10;58.95
1207;BME280;593;53.184;8.216;2023-04-07T05:48:41;101288.50;;;8.13;58.86
1207;BME280;593;53.184;8.216;2023-04-07T05:51:06;101285.44;;;8.09;58.69
1207;BME280;593;53.184;8.216;2023-04-07T05:53:31;101279.72;;;8.06;59.23
1207;BME280;593;53.184;8.216;2023-04-07T05:55:57;101279.16;;;8.04;59.52
1207;BME280;593;53.184;8.216;2023-04-07T05:58:22;101283.50;;;8.05;59.22
1207;BME280;593;53.184;8.216;2023-04-07T06:00:47;101296.22;;;8.04;60.21
1207;BME280;593;53.184;8.216;2023-04-07T06:03:13;101298.44;;;8.07;59.59
1207;BME280;593;53.184;8.216;2023-04-07T06:05:38;101294.66;;;8.08;59.88
1207;BME280;593;53.184;8.216;2023-04-07T06:08:10;101305.22;;;8.10;60.38
1207;BME280;593;53.184;8.216;2023-04-07T06:10:35;101292.50;;;8.10;59.67
1207;BME280;593;53.184;8.216;2023-04-07T06:13:00;101294.97;;;8.12;60.56
1207;BME280;593;53.184;8.216;2023-04-07T06:15:26;101315.66;;;8.18;60.42
1207;BME280;593;53.184;8.216;2023-04-07T06:17:51;101310.56;;;8.21;59.78
1207;BME280;593;53.184;8.216;2023-04-07T06:20:17;101303.75;;;8.19;59.60
1207;BME280;593;53.184;8.216;2023-04-07T06:22:44;101304.31;;;8.21;60.06
1207;BME280;593;53.184;8.216;2023-04-07T06:25:09;101314.75;;;8.29;60.27
1207;BME280;593;53.184;8.216;2023-04-07T06:27:34;101320.25;;;8.34;59.46
1207;BME280;593;53.184;8.216;2023-04-07T06:30:00;101319.72;;;8.37;59.50
1207;BME280;593;53.184;8.216;2023-04-07T06:32:25;101324.97;;;8.44;59.86
1207;BME280;593;53.184;8.216;2023-04-07T06:34:51;101329.06;;;8.46;59.71
1207;BME280;593;53.184;8.216;2023-04-07T06:37:16;101331.03;;;8.51;59.31
1207;BME280;593;53.184;8.216;2023-04-07T06:39:42;101341.44;;;8.59;59.85
1207;BME280;593;53.184;8.216;2023-04-07T06:42:07;101331.44;;;8.64;59.82
1207;BME280;593;53.184;8.216;2023-04-07T06:44:33;101339.47;;;8.76;59.70
1207;BME280;593;53.184;8.216;2023-04-07T06:46:58;101339.75;;;8.79;60.03
1207;BME280;593;53.184;8.216;2023-04-07T06:49:23;101345.00;;;8.86;59.03
1207;BME280;593;53.184;8.216;2023-04-07T06:51:49;101338.53;;;8.92;59.43
1207;BME280;593;53.184;8.216;2023-04-07T06:54:14;101348.72;;;9.01;59.72
1207;BME280;593;53.184;8.216;2023-04-07T06:56:41;101349.00;;;9.05;59.27
1207;BME280;593;53.184;8.216;2023-04-07T06:59:07;101360.47;;;9.12;58.79
1207;BME280;593;53.184;8.216;2023-04-07T07:01:33;101368.72;;;9.22;58.59
1207;BME280;593;53.184;8.216;2023-04-07T07:03:58;101351.94;;;9.25;58.72
1207;BME280;593;53.184;8.216;2023-04-07T07:06:25;101364.72;;;9.30;57.94
1207;BME280;593;53.184;8.216;2023-04-07T07:08:51;101360.13;;;9.30;58.46
1207;BME280;593;53.184;8.216;2023-04-07T07:11:17;101378.63;;;9.33;59.00
1207;BME280;593;53.184;8.216;2023-04-07T07:13:42;101361.25;;;9.34;58.32
1207;BME280;593;53.184;8.216;2023-04-07T07:16:09;101372.22;;;9.44;58.34
1207;BME280;593;53.184;8.216;2023-04-07T07:18:34;101368.97;;;9.47;58.66
1207;BME280;593;53.184;8.216;2023-04-07T07:21:01;101377.75;;;9.59;58.78
1207;BME280;593;53.184;8.216;2023-04-07T07:23:26;101384.78;;;9.55;57.98
1207;BME280;593;53.184;8.216;2023-04-07T07:25:51;101385.41;;;9.62;58.04
1207;BME280;593;53.184;8.216;2023-04-07T07:28:17;101390.59;;;9.64;58.66
1207;BME280;593;53.184;8.216;2023-04-07T07:30:42;101393.34;;;9.69;58.23
1207;BME280;593;53.184;8.216;2023-04-07T07:33:07;101400.72;;;9.74;57.84
1207;BME280;593;53.184;8.216;2023-04-07T07:35:33;101408.41;;;9.82;58.30
1207;BME280;593;53.184;8.216;2023-04-07T07:37:58;101398.09;;;9.84;58.38
1207;BME280;593;53.184;8.216;2023-04-07T07:40:24;101400.84;;;9.89;57.36
1207;BME280;593;53.184;8.216;2023-04-07T07:42:49;101401.44;;;9.96;58.11
1207;BME280;593;53.184;8.216;2023-04-07T07:45:15;101410.47;;;10.01;57.10
1207;BME280;593;53.184;8.216;2023-04-07T07:47:41;101413.19;;;10.01;57.06
1207;BME280;593;53.184;8.216;2023-04-07T07:50:07;101407.22;;;10.04;57.29
1207;BME280;593;53.184;8.216;2023-04-07T07:52:32;101410.53;;;10.11;57.22
1207;BME280;593;53.184;8.216;2023-04-07T07:54:58;101417.38;;;10.14;57.41
1207;BME280;593;53.184;8.216;2023-04-07T07:57:23;101417.66;;;10.17;57.33
1207;BME280;593;53.184;8.216;2023-04-07T07:59:48;101412.25;;;10.22;57.75
1207;BME280;593;53.184;8.216;2023-04-07T08:02:14;101401.06;;;10.14;57.09
1207;BME280;593;53.184;8.216;2023-04-07T08:04:39;101424.53;;;10.30;57.53
1207;BME280;593;53.184;8.216;2023-04-07T08:07:04;101418.31;;;10.35;56.51
1207;BME280;593;53.184;8.216;2023-04-07T08:09:30;101418.31;;;10.29;56.73
1207;BME280;593;53.184;8.216;2023-04-07T08:11:58;101429.50;;;10.38;56.51
1207;BME280;593;53.184;8.216;2023-04-07T08:14:24;101417.53;;;10.34;56.95
1207;BME280;593;53.184;8.216;2023-04-07T08:16:49;101427.34;;;10.40;57.00
1207;BME280;593;53.184;8.216;2023-04-07T08:19:14;101422.16;;;10.39;58.20
1207;BME280;593;53.184;8.216;2023-04-07T08:21:40;101418.94;;;10.42;58.16
1207;BME280;593;53.184;8.216;2023-04-07T08:24:05;101417.84;;;10.43;58.45
1207;BME280;593;53.184;8.216;2023-04-07T08:26:31;101421.13;;;10.50;59.01
1207;BME280;593;53.184;8.216;2023-04-07T08:28:56;101427.72;;;10.59;58.63
1207;BME280;593;53.184;8.216;2023-04-07T08:31:23;101425.84;;;10.59;58.83
1207;BME280;593;53.184;8.216;2023-04-07T08:33:48;101433.19;;;10.64;58.83
1207;BME280;593;53.184;8.216;2023-04-07T08:36:18;101425.88;;;10.64;58.58
1207;BME280;593;53.184;8.216;2023-04-07T08:38:44;101431.59;;;10.73;58.38
1207;BME280;593;53.184;8.216;2023-04-07T08:41:12;101431.38;;;10.79;57.96
1207;BME280;593;53.184;8.216;2023-04-07T08:43:38;101429.22;;;10.81;57.90
1207;BME280;593;53.184;8.216;2023-04-07T08:46:04;101431.66;;;10.83;57.74
1207;BME280;593;53.184;8.216;2023-04-07T08:48:31;101430.56;;;10.79;58.32
1207;BME280;593;53.184;8.216;2023-04-07T08:51:04;101437.66;;;10.85;58.37
1207;BME280;593;53.184;8.216;2023-04-07T08:53:47;101421.34;;;10.90;58.25
1207;BME280;593;53.184;8.216;2023-04-07T08:56:19;101436.34;;;10.98;58.56
1207;BME280;593;53.184;8.216;2023-04-07T08:58:47;101442.94;;;11.07;58.72
1207;BME280;593;53.184;8.216;2023-04-07T09:01:13;101445.38;;;11.08;58.70
1207;BME280;593;53.184;8.216;2023-04-07T09:03:41;101448.66;;;11.10;57.05
1207;BME280;593;53.184;8.216;2023-04-07T09:06:06;101452.75;;;11.13;55.89
1207;BME280;593;53.184;8.216;2023-04-07T09:08:34;101454.38;;;11.14;54.58
1207;BME280;593;53.184;8.216;2023-04-07T09:11:00;101442.94;;;11.12;53.32
1207;BME280;593;53.184;8.216;2023-04-07T09:13:25;101448.13;;;11.13;52.90
1207;BME280;593;53.184;8.216;2023-04-07T09:15:51;101441.31;;;11.16;52.40
1207;BME280;593;53.184;8.216;2023-04-07T09:18:16;101447.88;;;11.25;52.85
1207;BME280;593;53.184;8.216;2023-04-07T09:23:31;101446.84;;;11.36;52.23
1207;BME280;593;53.184;8.216;2023-04-07T09:25:58;101441.38;;;11.36;51.60
1207;BME280;593;53.184;8.216;2023-04-07T09:28:24;101451.22;;;11.42;51.25
1207;BME280;593;53.184;8.216;2023-04-07T09:30:53;101452.03;;;11.47;49.20
1207;BME280;593;53.184;8.216;2023-04-07T09:33:29;101446.88;;;11.51;46.85
1207;BME280;593;53.184;8.216;2023-04-07T09:35:54;101447.69;;;11.51;46.63
1207;BME280;593;53.184;8.216;2023-04-07T09:38:20;101456.44;;;11.58;46.20
1207;BME280;593;53.184;8.216;2023-04-07T09:40:45;101446.34;;;11.59;46.20
1207;BME280;593;53.184;8.216;2023-04-07T09:43:17;101450.16;;;11.63;45.59
1207;BME280;593;53.184;8.216;2023-04-07T09:45:43;101449.13;;;11.74;46.04
1207;BME280;593;53.184;8.216;2023-04-07T09:48:18;101451.34;;;11.82;46.05
1207;BME280;593;53.184;8.216;2023-04-07T09:50:44;101452.13;;;11.83;45.05
1207;BME280;593;53.184;8.216;2023-04-07T09:53:14;101449.16;;;11.89;44.64
1207;BME280;593;53.184;8.216;2023-04-07T09:55:40;101460.59;;;11.96;45.08
1207;BME280;593;53.184;8.216;2023-04-07T09:58:06;101456.78;;;11.97;44.30
1207;BME280;593;53.184;8.216;2023-04-07T10:00:34;101451.06;;;11.99;44.43
1207;BME280;593;53.184;8.216;2023-04-07T10:03:00;101446.69;;;12.08;44.13
1207;BME280;593;53.184;8.216;2023-04-07T10:05:26;101456.78;;;12.12;43.40
1207;BME280;593;53.184;8.216;2023-04-07T10:07:52;101442.06;;;12.08;43.56
1207;BME280;593;53.184;8.216;2023-04-07T10:10:18;101453.78;;;12.19;44.53
1207;BME280;593;53.184;8.216;2023-04-07T10:12:44;101452.41;;;12.27;44.08
1207;BME280;593;53.184;8.216;2023-04-07T10:15:12;101464.69;;;12.29;44.80
1207;BME280;593;53.184;8.216;2023-04-07T10:17:45;101465.22;;;12.36;43.56
1207;BME280;593;53.184;8.216;2023-04-07T10:20:14;101458.13;;;12.35;44.43
1207;BME280;593;53.184;8.216;2023-04-07T10:22:43;101448.03;;;12.41;45.23
1207;BME280;593;53.184;8.216;2023-04-07T10:25:11;101458.94;;;12.46;44.65
1207;BME280;593;53.184;8.216;2023-04-07T10:27:42;101459.75;;;12.51;44.49
1207;BME280;593;53.184;8.216;2023-04-07T10:30:27;101465.72;;;12.58;43.48
1207;BME280;593;53.184;8.216;2023-04-07T10:32:54;101456.47;;;12.54;43.78
1207;BME280;593;53.184;8.216;2023-04-07T10:35:20;101466.25;;;12.65;44.44
1207;BME280;593;53.184;8.216;2023-04-07T10:38:11;101466.81;;;12.67;43.78
1207;BME280;593;53.184;8.216;2023-04-07T10:40:39;101473.66;;;12.60;44.44
1207;BME280;593;53.184;8.216;2023-04-07T10:43:06;101467.38;;;12.64;44.01
1207;BME280;593;53.184;8.216;2023-04-07T10:48:10;101477.97;;;12.81;45.55
1207;BME280;593;53.184;8.216;2023-04-07T10:50:37;101471.13;;;12.83;43.48
1207;BME280;593;53.184;8.216;2023-04-07T10:53:13;101482.34;;;12.82;44.33
1207;BME280;593;53.184;8.216;2023-04-07T10:55:40;101478.22;;;12.90;44.15
1207;BME280;593;53.184;8.216;2023-04-07T10:58:12;101472.47;;;12.91;44.08
1207;BME280;593;53.184;8.216;2023-04-07T11:00:38;101468.34;;;12.99;42.93
1207;BME280;593;53.184;8.216;2023-04-07T11:03:11;101461.81;;;12.95;43.93
1207;BME280;593;53.184;8.216;2023-04-07T11:05:40;101485.56;;;13.04;43.13
1207;BME280;593;53.184;8.216;2023-04-07T11:08:06;101484.19;;;13.02;42.36
1207;BME280;593;53.184;8.216;2023-04-07T11:10:33;101486.13;;;13.06;41.91
1207;BME280;593;53.184;8.216;2023-04-07T11:13:04;101490.19;;;13.04;42.49
1207;BME280;593;53.184;8.216;2023-04-07T11:15:30;101484.22;;;13.07;43.04
1207;BME280;593;53.184;8.216;2023-04-07T11:20:46;101494.28;;;13.11;43.11
1207;BME280;593;53.184;8.216;2023-04-07T11:23:13;101506.03;;;13.17;43.31
1207;BME280;593;53.184;8.216;2023-04-07T11:25:41;101495.34;;;13.20;42.62
1207;BME280;593;53.184;8.216;2023-04-07T11:28:09;101507.06;;;13.26;42.03
1207;BME280;593;53.184;8.216;2023-04-07T11:30:36;101494.50;;;13.30;41.07
1207;BME280;593;53.184;8.216;2023-04-07T11:33:02;101500.75;;;13.30;42.15
1207;BME280;593;53.184;8.216;2023-04-07T11:35:27;101500.22;;;13.33;41.85
1207;BME280;593;53.184;8.216;2023-04-07T11:37:57;101493.91;;;13.33;42.07
1207;BME280;593;53.184;8.216;2023-04-07T11:40:34;101500.75;;;13.35;42.75
1207;BME280;593;53.184;8.216;2023-04-07T11:43:00;101497.22;;;13.35;43.23
1207;BME280;593;53.184;8.216;2023-04-07T11:45:26;101505.94;;;13.37;41.97
1207;BME280;593;53.184;8.216;2023-04-07T11:47:52;101493.16;;;13.27;42.09
1207;BME280;593;53.184;8.216;2023-04-07T11:50:38;101502.91;;;13.43;42.08
1207;BME280;593;53.184;8.216;2023-04-07T11:53:04;101495.53;;;13.44;42.72
1207;BME280;593;53.184;8.216;2023-04-07T11:55:30;101499.59;;;13.46;42.44
1207;BME280;593;53.184;8.216;2023-04-07T11:58:05;101498.75;;;13.51;41.36
1207;BME280;593;53.184;8.216;2023-04-07T12:00:30;101516.28;;;13.50;41.28
1207;BME280;593;53.184;8.216;2023-04-07T12:02:56;101512.72;;;13.49;41.34
1207;BME280;593;53.184;8.216;2023-04-07T12:05:21;101511.59;;;13.50;40.86
1207;BME280;593;53.184;8.216;2023-04-07T12:07:52;101516.50;;;13.54;41.59
1207;BME280;593;53.184;8.216;2023-04-07T12:10:22;101512.94;;;13.58;42.41
1207;BME280;593;53.184;8.216;2023-04-07T12:12:50;101524.19;;;13.52;42.12
1207;BME280;593;53.184;8.216;2023-04-07T12:15:16;101529.34;;;13.58;41.61
1207;BME280;593;53.184;8.216;2023-04-07T12:17:46;101523.84;;;13.63;41.43
1207;BME280;593;53.184;8.216;2023-04-07T12:20:12;101511.53;;;13.61;42.24
1207;BME280;593;53.184;8.216;2023-04-07T12:22:38;101519.47;;;13.67;42.17
1207;BME280;593;53.184;8.216;2023-04-07T12:25:03;101517.78;;;13.71;41.77
1207;BME280;593;53.184;8.216;2023-04-07T12:27:29;101515.06;;;13.71;41.04
1207;BME280;593;53.184;8.216;2023-04-07T12:29:54;101518.03;;;13.80;42.26
1207;BME280;593;53.184;8.216;2023-04-07T12:32:19;101530.31;;;13.82;40.59
1207;BME280;593;53.184;8.216;2023-04-07T12:34:45;101522.63;;;13.84;40.97
1207;BME280;593;53.184;8.216;2023-04-07T12:37:11;101513.88;;;13.87;40.81
1207;BME280;593;53.184;8.216;2023-04-07T12:39:37;101518.22;;;13.88;42.00
1207;BME280;593;53.184;8.216;2023-04-07T12:42:02;101522.31;;;13.91;41.31
1207;BME280;593;53.184;8.216;2023-04-07T12:44:27;101514.63;;;13.93;41.48
1207;BME280;593;53.184;8.216;2023-04-07T12:46:53;101525.31;;;13.94;41.48
1207;BME280;593;53.184;8.216;2023-04-07T12:49:18;101525.31;;;13.94;41.62
1207;BME280;593;53.184;8.216;2023-04-07T12:51:44;101526.91;;;14.00;40.83
1207;BME280;593;53.184;8.216;2023-04-07T12:54:10;101526.34;;;14.03;40.09
1207;BME280;593;53.184;8.216;2023-04-07T12:56:35;101524.91;;;14.11;40.95
1207;BME280;593;53.184;8.216;2023-04-07T12:59:00;101527.66;;;14.11;40.67
1207;BME280;593;53.184;8.216;2023-04-07T13:01:26;101530.13;;;14.12;41.70
1207;BME280;593;53.184;8.216;2023-04-07T13:03:51;101529.00;;;14.13;41.36
1207;BME280;593;53.184;8.216;2023-04-07T13:06:17;101524.00;;;14.21;43.59
1207;BME280;593;53.184;8.216;2023-04-07T13:08:43;101535.47;;;14.28;41.89
1207;BME280;593;53.184;8.216;2023-04-07T13:11:08;101524.53;;;14.33;40.31
1207;BME280;593;53.184;8.216;2023-04-07T13:13:33;101521.78;;;14.33;41.18
1207;BME280;593;53.184;8.216;2023-04-07T13:15:59;101525.06;;;14.30;40.61
1207;BME280;593;53.184;8.216;2023-04-07T13:18:25;101523.69;;;14.32;42.79
1207;BME280;593;53.184;8.216;2023-04-07T13:20:50;101522.28;;;14.40;42.52
1207;BME280;593;53.184;8.216;2023-04-07T13:23:16;101529.91;;;14.43;40.54
1207;BME280;593;53.184;8.216;2023-04-07T13:25:41;101523.78;;;14.51;41.57
1207;BME280;593;53.184;8.216;2023-04-07T13:28:07;101526.78;;;14.54;39.61
1207;BME280;593;53.184;8.216;2023-04-07T13:30:32;101518.88;;;14.53;41.08
1207;BME280;593;53.184;8.216;2023-04-07T13:32:57;101522.34;;;14.58;42.31
1207;BME280;593;53.184;8.216;2023-04-07T13:35:23;101524.44;;;14.71;43.93
1207;BME280;593;53.184;8.216;2023-04-07T13:37:48;101528.16;;;14.81;40.94